Terminal Aerodrome Forecast
Issued by NWS

Current Version | Previous Version | Text Only | Print | Product List | Glossary On
Versions: 1 2 3 4 5 6 7 8 9 10 11 12
000
FTUS46 KLOX 281100
TAFVNY
TAF
KVNY 281120Z 2812/2912 VRB03KT P6SM SKC
     FM282000 14008KT P6SM SKC
     FM290000 30007KT P6SM SKC
     FM290400 VRB03KT P6SM SKC=

USA.gov is the U.S. government's official web portal to all federal, state and local government web resources and services.